createdAt,value
2023-09-27T00:00:35.527Z,5.13
2023-09-27T00:03:37.593Z,4.87
2023-09-27T00:06:39.811Z,5.18
2023-09-27T00:09:42.082Z,4.88
2023-09-27T00:12:44.269Z,5.65
2023-09-27T00:15:50.704Z,4.80
2023-09-27T00:18:52.750Z,6.43
2023-09-27T00:21:58.107Z,5.88
2023-09-27T00:25:00.885Z,4.95
2023-09-27T00:28:02.939Z,5.05
2023-09-27T00:31:09.299Z,5.00
2023-09-27T00:34:11.248Z,5.03
2023-09-27T00:37:13.334Z,5.50
2023-09-27T00:40:16.555Z,5.30
2023-09-27T00:43:32.003Z,5.30
2023-09-27T00:46:34.083Z,5.10
2023-09-27T00:49:36.246Z,5.20
2023-09-27T00:52:41.707Z,5.18
2023-09-27T00:55:43.564Z,5.35
2023-09-27T00:58:45.881Z,5.15
2023-09-27T01:01:48.181Z,5.70
2023-09-27T01:04:50.195Z,5.20
2023-09-27T01:07:52.939Z,4.80
2023-09-27T01:10:55.112Z,5.45
2023-09-27T01:13:57.648Z,5.28
2023-09-27T01:17:12.631Z,4.87
2023-09-27T01:20:14.836Z,5.37
2023-09-27T01:23:17.026Z,4.72
2023-09-27T01:26:20.007Z,5.68
2023-09-27T01:29:22.386Z,5.20
2023-09-27T01:32:24.563Z,5.63
2023-09-27T01:35:26.789Z,5.80
2023-09-27T01:38:28.805Z,5.32
2023-09-27T01:41:30.817Z,5.38
2023-09-27T01:44:33.011Z,5.40
2023-09-27T01:47:35.201Z,6.03
2023-09-27T01:50:37.296Z,5.90
2023-09-27T01:53:39.385Z,5.90
2023-09-27T01:56:41.358Z,5.70
2023-09-27T02:02:47.320Z,6.30
2023-09-27T02:05:49.681Z,6.07
2023-09-27T02:08:51.993Z,6.00
2023-09-27T02:11:54.225Z,6.57
2023-09-27T02:14:56.170Z,6.60
2023-09-27T02:17:58.165Z,6.60
2023-09-27T02:21:00.301Z,6.30
2023-09-27T02:24:02.546Z,6.40
2023-09-27T02:27:04.584Z,7.32
2023-09-27T02:30:12.807Z,6.38
2023-09-27T02:33:14.889Z,6.85
2023-09-27T02:36:16.929Z,6.80
2023-09-27T02:39:19.247Z,6.93
2023-09-27T02:42:21.540Z,6.40
2023-09-27T02:45:23.511Z,6.43
2023-09-27T02:48:28.506Z,6.50
2023-09-27T02:51:30.424Z,6.70
2023-09-27T02:54:32.349Z,7.45
2023-09-27T02:57:34.364Z,6.80
2023-09-27T03:00:36.308Z,7.32
2023-09-27T03:03:41.526Z,7.22
2023-09-27T03:06:43.704Z,6.83
2023-09-27T03:09:47.112Z,6.95
2023-09-27T03:12:50.547Z,7.15
2023-09-27T03:16:00.007Z,7.28
2023-09-27T03:19:05.505Z,7.03
2023-09-27T03:22:08.611Z,6.80
2023-09-27T03:25:11.187Z,7.18
2023-09-27T03:28:13.084Z,6.82
2023-09-27T03:31:15.168Z,6.78
2023-09-27T03:34:17.265Z,6.97
2023-09-27T03:37:20.306Z,6.63
2023-09-27T03:40:22.179Z,6.78
2023-09-27T03:43:24.071Z,7.60
2023-09-27T03:46:26.176Z,6.68
2023-09-27T03:49:28.143Z,6.88
2023-09-27T03:52:30.022Z,7.23
2023-09-27T03:55:32.040Z,7.20
2023-09-27T03:58:34.042Z,7.10
2023-09-27T04:01:36.128Z,7.22
2023-09-27T04:04:44.189Z,7.10
2023-09-27T04:07:49.274Z,6.93
2023-09-27T04:10:51.178Z,6.70
2023-09-27T04:13:53.183Z,6.47
2023-09-27T04:17:01.030Z,6.32
2023-09-27T04:20:10.460Z,6.65
2023-09-27T04:23:12.974Z,7.07
2023-09-27T04:26:15.087Z,7.07
2023-09-27T04:29:17.078Z,6.93
2023-09-27T04:32:19.274Z,6.72
2023-09-27T04:35:25.720Z,6.75
2023-09-27T04:38:28.172Z,6.23
2023-09-27T04:41:30.509Z,6.43
2023-09-27T04:44:32.574Z,6.93
2023-09-27T04:47:34.609Z,6.82
2023-09-27T04:50:36.720Z,6.95
2023-09-27T04:53:39.381Z,7.20
2023-09-27T04:56:41.769Z,7.15
2023-09-27T04:59:43.982Z,7.10
2023-09-27T05:02:50.761Z,7.32
2023-09-27T05:05:53.517Z,7.10
2023-09-27T05:08:56.262Z,7.27
2023-09-27T05:11:58.201Z,7.45
2023-09-27T05:15:00.168Z,8.75
2023-09-27T05:18:02.288Z,7.70
2023-09-27T05:21:07.567Z,6.95
2023-09-27T05:24:09.823Z,7.37
2023-09-27T05:27:12.186Z,6.65
2023-09-27T05:30:14.314Z,7.15
2023-09-27T05:33:16.318Z,7.28
2023-09-27T05:36:18.296Z,6.82
2023-09-27T05:39:20.422Z,7.07
2023-09-27T05:42:22.538Z,7.10
2023-09-27T05:45:25.176Z,7.18
2023-09-27T05:48:27.806Z,6.88
2023-09-27T05:51:31.702Z,7.00
2023-09-27T05:54:34.226Z,6.80
2023-09-27T05:57:36.603Z,7.22
2023-09-27T06:00:47.906Z,7.28
2023-09-27T06:03:50.787Z,6.88
2023-09-27T06:06:56.363Z,7.25
2023-09-27T06:09:58.497Z,7.23
2023-09-27T06:13:00.478Z,6.93
2023-09-27T06:16:03.514Z,7.13
2023-09-27T06:19:06.276Z,6.80
2023-09-27T06:22:08.435Z,6.68
2023-09-27T06:25:10.781Z,7.03
2023-09-27T06:28:14.891Z,6.97
2023-09-27T06:31:16.833Z,7.25
2023-09-27T06:34:19.104Z,7.43
2023-09-27T06:37:21.471Z,7.78
2023-09-27T06:40:26.216Z,7.67
2023-09-27T06:43:30.207Z,6.93
2023-09-27T06:46:48.351Z,7.35
2023-09-27T06:49:52.576Z,7.65
2023-09-27T06:53:07.035Z,7.72
2023-09-27T06:56:16.874Z,8.30
2023-09-27T06:59:19.182Z,7.60
2023-09-27T07:02:21.400Z,7.63
2023-09-27T07:05:24.623Z,7.65
2023-09-27T07:08:27.031Z,7.70
2023-09-27T07:11:29.414Z,8.07
2023-09-27T07:14:33.063Z,7.45
2023-09-27T07:17:35.375Z,8.32
2023-09-27T07:20:38.189Z,7.40
2023-09-27T07:23:40.420Z,7.63
2023-09-27T07:26:47.818Z,7.40
2023-09-27T07:29:50.572Z,7.63
2023-09-27T07:32:53.246Z,8.27
2023-09-27T07:35:55.704Z,7.85
2023-09-27T07:38:59.382Z,7.57
2023-09-27T07:42:01.630Z,8.53
2023-09-27T07:45:04.350Z,8.27
2023-09-27T07:48:07.016Z,8.73
2023-09-27T07:51:18.143Z,8.75
2023-09-27T07:54:20.334Z,8.65
2023-09-27T07:57:22.343Z,8.13
2023-09-27T08:00:29.998Z,8.18
2023-09-27T08:03:32.247Z,7.60
2023-09-27T08:06:37.668Z,7.60
2023-09-27T08:09:41.761Z,7.65
2023-09-27T08:12:44.661Z,7.20
2023-09-27T08:15:49.307Z,7.32
2023-09-27T08:18:51.490Z,7.35
2023-09-27T08:21:57.076Z,7.50
2023-09-27T08:24:59.559Z,7.40
2023-09-27T08:28:02.641Z,7.30
2023-09-27T08:31:07.175Z,7.05
2023-09-27T08:34:09.279Z,7.00
2023-09-27T08:37:12.839Z,7.07
2023-09-27T08:40:15.223Z,6.78
2023-09-27T08:43:17.592Z,6.93
2023-09-27T08:46:22.765Z,7.15
2023-09-27T08:49:25.556Z,7.47
2023-09-27T08:52:29.131Z,6.40
2023-09-27T08:55:31.498Z,6.32
2023-09-27T08:58:35.552Z,5.90
2023-09-27T09:01:37.713Z,6.45
2023-09-27T09:04:39.882Z,6.40
2023-09-27T09:07:45.127Z,6.10
2023-09-27T09:10:48.383Z,6.03
2023-09-27T09:14:06.392Z,5.93
2023-09-27T09:17:09.517Z,5.85
2023-09-27T09:20:37.613Z,5.93
2023-09-27T09:23:40.404Z,6.20
2023-09-27T09:26:42.581Z,6.22
2023-09-27T09:29:48.394Z,5.07
2023-09-27T09:32:51.650Z,5.82
2023-09-27T09:35:54.111Z,5.70
2023-09-27T09:39:05.777Z,5.55
2023-09-27T09:42:07.643Z,6.03
2023-09-27T09:45:11.805Z,6.00
2023-09-27T09:48:15.251Z,5.78
2023-09-27T09:51:17.279Z,6.03
2023-09-27T09:54:39.313Z,5.65
2023-09-27T09:57:52.439Z,5.20
2023-09-27T10:00:55.620Z,5.33
2023-09-27T10:03:58.273Z,5.18
2023-09-27T10:07:00.483Z,5.40
2023-09-27T10:10:05.363Z,4.93
2023-09-27T10:13:07.920Z,5.15
2023-09-27T10:16:10.106Z,4.77
2023-09-27T10:19:12.067Z,5.30
2023-09-27T10:22:20.531Z,5.10
2023-09-27T10:25:28.461Z,5.35
2023-09-27T10:28:30.646Z,4.28
2023-09-27T10:31:33.165Z,4.80
2023-09-27T10:34:42.507Z,4.97
2023-09-27T10:38:00.862Z,5.05
2023-09-27T10:41:04.811Z,4.75
2023-09-27T10:44:07.184Z,5.15
2023-09-27T10:47:10.569Z,4.70
2023-09-27T10:50:12.978Z,4.07
2023-09-27T10:53:16.281Z,4.22
2023-09-27T10:56:19.097Z,4.50
2023-09-27T10:59:28.517Z,4.40
2023-09-27T11:02:31.275Z,4.73
2023-09-27T11:05:33.436Z,4.32
2023-09-27T11:08:36.160Z,4.32
2023-09-27T11:11:38.338Z,4.05
2023-09-27T11:14:45.274Z,3.88
2023-09-27T11:17:47.733Z,3.80
2023-09-27T11:20:50.018Z,3.38
2023-09-27T11:24:02.848Z,4.00
2023-09-27T11:27:05.064Z,3.33
2023-09-27T11:30:07.891Z,3.38
2023-09-27T11:33:09.817Z,3.70
2023-09-27T11:36:12.008Z,3.63
2023-09-27T11:39:18.090Z,4.00
2023-09-27T11:42:23.759Z,3.28
2023-09-27T11:45:25.892Z,3.00
2023-09-27T11:48:34.780Z,3.27
2023-09-27T11:51:37.130Z,3.45
2023-09-27T11:54:46.746Z,3.60
2023-09-27T11:57:48.816Z,3.55
2023-09-27T12:00:50.858Z,3.67
2023-09-27T12:03:53.345Z,3.90
2023-09-27T12:07:00.643Z,4.03
2023-09-27T12:10:03.106Z,4.55
2023-09-27T12:13:05.258Z,4.07
2023-09-27T12:16:07.313Z,4.00
2023-09-27T12:19:09.513Z,4.40
2023-09-27T12:22:15.400Z,3.75
2023-09-27T12:25:17.401Z,3.90
2023-09-27T12:28:20.775Z,4.05
2023-09-27T12:31:23.119Z,3.92
2023-09-27T12:34:25.104Z,4.37
2023-09-27T12:37:27.504Z,4.30
2023-09-27T12:40:29.595Z,4.35
2023-09-27T12:43:31.591Z,4.07
2023-09-27T12:46:33.551Z,4.13
2023-09-27T12:49:36.976Z,3.90
2023-09-27T12:52:38.899Z,3.75
2023-09-27T12:55:42.920Z,4.60
2023-09-27T12:58:45.737Z,4.00
2023-09-27T13:01:47.825Z,4.20
2023-09-27T13:04:49.747Z,4.03
2023-09-27T13:07:51.682Z,4.18
2023-09-27T13:10:54.087Z,4.03
2023-09-27T13:13:56.074Z,4.38
2023-09-27T13:16:58.021Z,4.10
2023-09-27T13:19:59.880Z,4.30
2023-09-27T13:23:02.178Z,4.15
2023-09-27T13:26:04.339Z,4.25
2023-09-27T13:29:06.436Z,4.00
2023-09-27T13:32:09.700Z,4.15
2023-09-27T13:35:12.158Z,4.10
2023-09-27T13:38:14.355Z,4.13
2023-09-27T13:41:19.599Z,4.40
2023-09-27T13:44:23.878Z,3.67
2023-09-27T13:47:26.056Z,3.60
2023-09-27T13:50:29.293Z,3.87
2023-09-27T13:53:31.513Z,4.00
2023-09-27T13:56:33.692Z,3.88
2023-09-27T13:59:35.837Z,3.78
2023-09-27T14:02:37.875Z,3.92
2023-09-27T14:05:40.140Z,3.80
2023-09-27T14:08:42.412Z,4.05
2023-09-27T14:11:44.618Z,3.67
2023-09-27T14:14:46.772Z,4.22
2023-09-27T14:17:48.964Z,3.67
2023-09-27T14:20:52.162Z,3.83
2023-09-27T14:23:54.431Z,4.00
2023-09-27T14:26:56.805Z,4.07
2023-09-27T14:29:59.090Z,3.90
2023-09-27T14:33:01.996Z,3.90
2023-09-27T14:36:05.085Z,3.70
2023-09-27T14:39:12.722Z,3.72
2023-09-27T14:42:14.760Z,3.60
2023-09-27T14:45:28.915Z,3.58
2023-09-27T14:48:33.901Z,3.92
2023-09-27T14:51:35.978Z,3.70
2023-09-27T14:54:38.175Z,3.45
2023-09-27T14:57:42.183Z,4.13
2023-09-27T15:00:44.344Z,4.00
2023-09-27T15:03:46.646Z,4.00
2023-09-27T15:06:48.710Z,4.03
2023-09-27T15:09:50.664Z,3.70
2023-09-27T15:12:52.676Z,3.38
2023-09-27T15:15:54.753Z,4.10
2023-09-27T15:18:56.707Z,4.03
2023-09-27T15:21:59.242Z,3.40
2023-09-27T15:25:01.367Z,3.47
2023-09-27T15:28:03.468Z,3.58
2023-09-27T15:31:07.038Z,3.60
2023-09-27T15:34:09.027Z,3.80
2023-09-27T15:37:11.099Z,4.00
2023-09-27T15:40:13.115Z,3.92
2023-09-27T15:43:15.170Z,3.90
2023-09-27T15:46:18.187Z,4.18
2023-09-27T15:49:20.264Z,3.72
2023-09-27T15:52:29.488Z,3.67
2023-09-27T15:55:31.495Z,3.90
2023-09-27T15:58:34.220Z,4.00
2023-09-27T16:01:36.677Z,3.80
2023-09-27T16:04:51.257Z,4.47
2023-09-27T16:07:54.627Z,3.47
2023-09-27T16:10:57.278Z,3.83
2023-09-27T16:13:59.678Z,5.05
2023-09-27T16:17:01.784Z,4.18
2023-09-27T16:20:03.895Z,4.10
2023-09-27T16:23:06.563Z,4.00
2023-09-27T16:26:08.641Z,4.30
2023-09-27T16:29:10.695Z,4.25
2023-09-27T16:32:13.207Z,4.07
2023-09-27T16:35:15.375Z,3.90
2023-09-27T16:38:17.301Z,4.27
2023-09-27T16:41:20.875Z,4.45
2023-09-27T16:44:23.004Z,4.82
2023-09-27T16:47:24.851Z,4.07
2023-09-27T16:50:27.160Z,4.22
2023-09-27T16:53:29.195Z,4.20
2023-09-27T16:56:32.754Z,4.63
2023-09-27T16:59:35.386Z,4.28
2023-09-27T17:02:37.757Z,4.50
2023-09-27T17:05:39.953Z,4.72
2023-09-27T17:08:41.912Z,4.87
2023-09-27T17:11:44.093Z,4.55
2023-09-27T17:14:46.145Z,5.03
2023-09-27T17:17:49.680Z,5.07
2023-09-27T17:20:51.772Z,5.50
2023-09-27T17:23:54.240Z,5.30
2023-09-27T17:26:56.883Z,6.07
2023-09-27T17:30:00.059Z,5.93
2023-09-27T17:33:03.187Z,5.55
2023-09-27T17:36:05.810Z,5.97
2023-09-27T17:39:08.404Z,5.90
2023-09-27T17:42:10.434Z,6.28
2023-09-27T17:45:13.457Z,6.90
2023-09-27T17:48:15.450Z,6.82
2023-09-27T17:51:17.744Z,6.60
2023-09-27T17:54:20.415Z,6.17
2023-09-27T17:57:22.965Z,5.85
2023-09-27T18:00:27.461Z,6.72
2023-09-27T18:03:29.800Z,5.57
2023-09-27T18:06:31.889Z,5.00
2023-09-27T18:09:37.548Z,5.27
2023-09-27T18:12:39.470Z,5.30
2023-09-27T18:15:41.520Z,5.05
2023-09-27T18:18:44.717Z,4.82
2023-09-27T18:21:47.269Z,5.45
2023-09-27T18:24:49.424Z,4.97
2023-09-27T18:27:51.392Z,5.60
2023-09-27T18:30:53.336Z,5.65
2023-09-27T18:33:56.649Z,5.05
2023-09-27T18:36:59.161Z,4.88
2023-09-27T18:40:01.210Z,5.10
2023-09-27T18:43:03.621Z,5.30
2023-09-27T18:46:06.325Z,5.28
2023-09-27T18:49:08.502Z,4.90
2023-09-27T18:52:10.851Z,5.68
2023-09-27T18:55:12.847Z,5.00
2023-09-27T18:58:15.707Z,4.65
2023-09-27T19:01:17.854Z,4.65
2023-09-27T19:04:20.138Z,5.65
2023-09-27T19:07:22.261Z,5.13
2023-09-27T19:10:25.111Z,4.87
2023-09-27T19:13:27.258Z,4.57
2023-09-27T19:16:32.306Z,4.70
2023-09-27T19:19:34.306Z,4.53
2023-09-27T19:22:37.020Z,4.78
2023-09-27T19:25:39.609Z,4.70
2023-09-27T19:28:41.531Z,5.10
2023-09-27T19:31:43.924Z,5.20
2023-09-27T19:34:46.498Z,4.53
2023-09-27T19:37:48.718Z,4.32
2023-09-27T19:40:51.144Z,4.23
2023-09-27T19:43:53.404Z,5.18
2023-09-27T19:46:56.451Z,4.85
2023-09-27T19:49:59.937Z,5.25
2023-09-27T19:53:02.062Z,4.75
2023-09-27T19:59:38.555Z,4.60
2023-09-27T20:06:43.726Z,3.88
2023-09-27T20:10:32.385Z,4.28
2023-09-27T20:17:20.625Z,4.53
2023-09-27T20:21:24.319Z,4.90
2023-09-27T20:24:44.757Z,4.53
2023-09-27T20:34:52.161Z,4.47
2023-09-27T20:52:05.370Z,4.30
2023-09-27T21:01:59.703Z,3.88
2023-09-27T21:12:16.571Z,3.70
2023-09-27T21:47:37.757Z,3.83
2023-09-27T22:02:00.393Z,4.40
2023-09-27T22:05:02.486Z,4.75
2023-09-27T22:08:04.970Z,4.30
2023-09-27T22:11:07.042Z,4.82
2023-09-27T22:14:09.185Z,4.07
2023-09-27T22:17:11.518Z,4.38
2023-09-27T22:20:17.921Z,4.57
2023-09-27T22:23:33.414Z,4.18
2023-09-27T22:26:35.520Z,4.28
2023-09-27T22:29:41.229Z,4.60
2023-09-27T22:32:44.361Z,4.18
2023-09-27T22:35:53.679Z,4.35
2023-09-27T22:38:55.836Z,4.60
2023-09-27T22:41:57.852Z,4.40
2023-09-27T22:45:01.655Z,4.30
2023-09-27T22:48:06.908Z,4.28
2023-09-27T22:51:11.423Z,4.57
2023-09-27T22:54:18.034Z,4.22
2023-09-27T22:57:22.103Z,4.10
2023-09-27T23:00:26.028Z,4.47
2023-09-27T23:03:30.586Z,4.72
2023-09-27T23:06:32.640Z,4.50
2023-09-27T23:09:37.739Z,4.70
2023-09-27T23:12:40.151Z,4.30
2023-09-27T23:15:42.110Z,4.70
2023-09-27T23:18:44.163Z,4.38
2023-09-27T23:21:49.626Z,4.38
2023-09-27T23:25:11.638Z,4.22
2023-09-27T23:28:29.015Z,4.45
2023-09-27T23:31:31.135Z,4.40
2023-09-27T23:34:38.562Z,4.57
2023-09-27T23:37:40.833Z,5.05
2023-09-27T23:40:43.259Z,4.47
2023-09-27T23:43:48.709Z,4.55
2023-09-27T23:46:53.051Z,4.63
2023-09-27T23:49:58.572Z,4.70
2023-09-27T23:53:00.761Z,4.68
2023-09-27T23:56:03.223Z,4.50
2023-09-27T23:59:21.623Z,4.88
